Terminal Aerodrome Forecast
Issued by NWS Central Illinois

Current Version | Previous Version | Text Only | Print | Product List | Glossary On
Versions: 1 2 3 4 5 6 7 8 9 10 11 12 13 14 15 16 17
000
FTUS43 KILX 272341
TAFSPI
TAF
KSPI 272341Z 2800/2824 08005KT P6SM SCT035 OVC250
      TEMPO 2802/2804 6SM -SHRA BR BKN035
     FM280800 08003KT 3SM BR BKN250
     FM281500 13008KT P6SM SCT035=

USA.gov is the U.S. government's official web portal to all federal, state and local government web resources and services.